Time;durP1;ratioP1;P1;durP2;ratioP2;P2;SDS_P1;SDS_P2;PMS_P1;PMS_P2;Temp;Humidity;BMP_temperature;BMP_pressure;BME280_temperature;BME280_humidity;BME280_pressure;Samples;Min_cycle;Max_cycle;Signal;HPM_P1;HPM_P2
2023/07/31 00:00:24;;;;;;;3.40;2.13;;;;;;;22.59;58.66;100512.50;5069803;28;20032;-74
2023/07/31 00:02:49;;;;;;;3.35;2.22;;;;;;;22.58;58.83;100513.47;5066878;28;20040;-72
2023/07/31 00:05:15;;;;;;;3.55;2.00;;;;;;;22.59;58.55;100512.50;5066323;28;20150;-70
2023/07/31 00:07:41;;;;;;;3.45;1.90;;;;;;;22.59;58.68;100509.84;5070455;28;20035;-68
2023/07/31 00:10:06;;;;;;;3.40;2.20;;;;;;;22.57;58.35;100503.81;5069198;28;20032;-72
2023/07/31 00:12:32;;;;;;;4.05;2.30;;;;;;;22.57;58.66;100503.81;5056596;28;20028;-70
2023/07/31 00:14:58;;;;;;;3.45;2.67;;;;;;;22.57;58.44;100503.81;5066844;28;20032;-71
2023/07/31 00:17:23;;;;;;;2.67;2.00;;;;;;;22.55;58.60;100495.19;5070384;28;20040;-74
2023/07/31 00:19:50;;;;;;;2.15;1.88;;;;;;;22.55;58.40;100500.47;5071204;28;20077;-70
2023/07/31 00:22:16;;;;;;;5.43;1.73;;;;;;;22.54;58.71;100494.34;5067305;28;20027;-67
2023/07/31 00:24:41;;;;;;;2.92;1.88;;;;;;;22.55;58.57;100495.19;5065046;28;20032;-72
2023/07/31 00:27:06;;;;;;;3.63;2.28;;;;;;;22.54;58.73;100496.16;5073070;28;20058;-69
2023/07/31 00:29:32;;;;;;;2.35;1.67;;;;;;;22.53;58.60;100492.66;5070402;28;20052;-76
2023/07/31 00:31:57;;;;;;;4.57;2.13;;;;;;;22.53;58.52;100492.66;5068390;28;20036;-71
2023/07/31 00:34:22;;;;;;;3.63;1.90;;;;;;;22.54;58.50;100498.81;5064498;28;20028;-69
2023/07/31 00:36:48;;;;;;;3.25;2.00;;;;;;;22.54;58.54;100494.34;5069496;28;20399;-70
2023/07/31 00:39:13;;;;;;;2.60;2.20;;;;;;;22.52;58.33;100484.84;5069988;28;20040;-69
2023/07/31 00:41:39;;;;;;;3.03;1.90;;;;;;;22.53;58.63;100482.09;5069420;28;20025;-72
2023/07/31 00:44:04;;;;;;;3.63;2.22;;;;;;;22.52;58.61;100483.06;5070844;28;20032;-73
2023/07/31 00:46:29;;;;;;;3.42;2.50;;;;;;;22.52;58.39;100483.06;5069074;28;20024;-69
2023/07/31 00:48:55;;;;;;;3.97;1.70;;;;;;;22.52;58.45;100488.34;5074596;28;20120;-70
2023/07/31 00:51:20;;;;;;;4.18;1.95;;;;;;;22.52;58.44;100483.06;5073447;28;20050;-72
2023/07/31 00:53:47;;;;;;;2.20;2.00;;;;;;;22.53;58.80;100481.25;5067851;28;20411;-69
2023/07/31 00:56:12;;;;;;;4.90;1.98;;;;;;;22.51;58.56;100481.34;5080162;28;20024;-69
2023/07/31 00:58:37;;;;;;;2.72;1.90;;;;;;;22.51;58.50;100478.72;5056547;28;20024;-70
2023/07/31 01:01:03;;;;;;;3.78;2.15;;;;;;;22.51;58.73;100477.88;5072626;28;20029;-70
2023/07/31 01:03:28;;;;;;;3.13;1.90;;;;;;;22.49;58.70;100476.19;5076821;28;20055;-72
2023/07/31 01:05:56;;;;;;;3.72;1.90;;;;;;;22.49;58.43;100470.91;5075684;28;20057;-69
2023/07/31 01:08:37;;;;;;;2.92;2.17;;;;;;;22.49;58.43;100476.19;5072224;28;20032;-69
2023/07/31 01:11:09;;;;;;;2.13;1.92;;;;;;;22.49;58.49;100473.56;5071593;28;20429;-71
2023/07/31 01:13:35;;;;;;;1.95;1.75;;;;;;;22.49;58.49;100465.63;5071855;28;20017;-69
2023/07/31 01:16:00;;;;;;;3.20;1.90;;;;;;;22.49;58.35;100475.34;5070816;28;20462;-70
2023/07/31 01:18:26;;;;;;;1.88;1.60;;;;;;;22.51;58.48;100483.16;5073561;28;20043;-70
2023/07/31 01:21:00;;;;;;;4.38;2.17;;;;;;;22.49;58.39;100470.91;5074074;28;21238;-71
2023/07/31 01:23:31;;;;;;;2.67;2.05;;;;;;;22.49;58.29;100470.06;5068051;28;20028;-68
2023/07/31 01:26:23;;;;;;;4.20;1.85;;;;;;;22.49;58.65;100467.44;5067771;28;20123;-71
2023/07/31 01:28:54;;;;;;;2.15;1.73;;;;;;;22.48;58.63;100463.09;5071541;28;20106;-68
2023/07/31 01:31:23;;;;;;;4.22;1.98;;;;;;;22.47;58.66;100451.69;5071565;28;20020;-69
2023/07/31 01:33:49;;;;;;;;;;;;;;;22.48;58.26;100456.00;5066105;28;20020;-69
2023/07/31 01:36:15;;;;;;;1.70;1.60;;;;;;;22.47;58.52;100451.69;5059159;28;19916;-71
2023/07/31 01:38:40;;;;;;;3.28;1.90;;;;;;;22.47;58.35;100441.09;5072969;28;21067;-70
2023/07/31 01:41:05;;;;;;;3.28;1.90;;;;;;;22.47;58.41;100446.38;5072341;28;20061;-73
2023/07/31 01:43:31;;;;;;;7.40;2.17;;;;;;;22.48;58.45;100436.66;5078394;28;20062;-69
2023/07/31 01:45:56;;;;;;;4.00;2.03;;;;;;;22.47;58.39;100438.47;5075600;28;20035;-70
2023/07/31 01:48:21;;;;;;;3.65;2.10;;;;;;;22.45;58.22;100450.94;5072276;28;20020;-70
2023/07/31 01:50:46;;;;;;;3.70;1.98;;;;;;;22.45;58.46;100442.19;5072846;28;20056;-71
2023/07/31 01:53:13;;;;;;;2.20;2.00;;;;;;;22.45;58.32;100437.72;5076365;28;20062;-70
2023/07/31 01:55:38;;;;;;;3.20;1.77;;;;;;;22.46;58.30;100443.84;5077852;28;20361;-68
2023/07/31 01:58:04;;;;;;;1.92;1.67;;;;;;;22.44;58.19;100446.63;5072228;28;20040;-70
2023/07/31 02:00:29;;;;;;;2.00;1.80;;;;;;;22.43;57.91;100431.72;5071492;28;20039;-74
2023/07/31 02:02:54;;;;;;;3.53;1.63;;;;;;;22.43;58.07;100438.81;5078603;28;20028;-70
2023/07/31 02:05:19;;;;;;;2.72;1.85;;;;;;;22.44;58.03;100437.84;5069475;28;20032;-70
2023/07/31 02:07:45;;;;;;;3.90;2.10;;;;;;;22.44;57.97;100429.91;5072954;28;20573;-69
2023/07/31 02:10:10;;;;;;;5.05;2.58;;;;;;;22.43;58.05;100429.09;5072527;28;20590;-69
2023/07/31 02:12:36;;;;;;;2.85;1.77;;;;;;;22.52;57.77;100427.50;5069360;28;20552;-68
2023/07/31 02:15:01;;;;;;;2.65;1.85;;;;;;;22.58;57.56;100426.97;5065858;28;20017;-68
2023/07/31 02:17:26;;;;;;;2.45;1.90;;;;;;;22.61;57.53;100423.22;5071663;28;20486;-67
2023/07/31 02:19:52;;;;;;;2.40;2.20;;;;;;;22.60;57.52;100417.09;5073356;28;20083;-69
2023/07/31 02:22:18;;;;;;;3.85;2.08;;;;;;;22.60;57.40;100417.09;5068861;28;20145;-70
2023/07/31 02:24:43;;;;;;;4.30;2.00;;;;;;;22.60;57.34;100410.97;5068199;28;20048;-69
2023/07/31 02:27:08;;;;;;;2.85;2.08;;;;;;;22.58;57.35;100408.47;5073937;28;20056;-69
2023/07/31 02:29:34;;;;;;;3.80;1.98;;;;;;;22.57;57.41;100408.56;5072753;28;20036;-70
2023/07/31 02:31:59;;;;;;;2.40;1.77;;;;;;;22.55;57.34;100400.75;5070196;28;20082;-70
2023/07/31 02:34:24;;;;;;;2.55;1.90;;;;;;;22.56;57.43;100406.91;5067001;28;20075;-70
2023/07/31 02:36:50;;;;;;;2.15;1.75;;;;;;;22.54;57.73;100412.31;5074229;28;20081;-68
2023/07/31 02:39:15;;;;;;;2.35;2.00;;;;;;;22.54;57.36;100412.31;5072387;28;20071;-70
2023/07/31 02:41:40;;;;;;;3.72;2.35;;;;;;;22.54;57.43;100412.31;5069901;28;20055;-69
2023/07/31 02:44:06;;;;;;;2.63;1.85;;;;;;;22.54;57.50;100403.56;5068645;28;20043;-68
2023/07/31 02:46:31;;;;;;;3.22;1.75;;;;;;;22.53;57.33;100409.81;5073484;28;20031;-71
2023/07/31 02:48:56;;;;;;;3.20;1.95;;;;;;;22.53;57.54;100413.28;5073557;28;20024;-70
2023/07/31 02:51:22;;;;;;;3.03;2.08;;;;;;;22.55;57.51;100415.81;5054227;28;20089;-69
2023/07/31 02:53:48;;;;;;;3.22;2.17;;;;;;;22.54;57.41;100409.69;5070903;28;20040;-66
2023/07/31 02:56:13;;;;;;;3.00;2.13;;;;;;;22.55;57.38;100410.50;5069183;28;20047;-73
2023/07/31 02:58:38;;;;;;;3.58;2.00;;;;;;;22.54;57.40;100414.13;5053544;28;20673;-69
2023/07/31 03:01:04;;;;;;;2.90;2.38;;;;;;;22.53;57.11;100408.00;5072340;28;20039;-69
2023/07/31 03:03:29;;;;;;;2.90;2.00;;;;;;;22.53;57.40;100412.47;5065645;28;20103;-70
2023/07/31 03:05:54;;;;;;;2.17;1.80;;;;;;;22.53;57.32;100407.16;5069350;28;20040;-69
2023/07/31 03:08:20;;;;;;;3.03;1.70;;;;;;;22.54;57.15;100398.25;5071068;28;20036;-70
2023/07/31 03:10:45;;;;;;;1.98;1.80;;;;;;;22.52;56.95;100401.03;5071508;28;20115;-69
2023/07/31 03:13:11;;;;;;;3.08;2.38;;;;;;;22.53;57.39;100405.34;5066123;28;20102;-67
2023/07/31 03:15:36;;;;;;;4.53;1.70;;;;;;;22.53;57.10;100409.81;5067603;28;20028;-70
2023/07/31 03:18:01;;;;;;;3.35;2.00;;;;;;;22.53;57.09;100405.34;5072288;28;20739;-67
2023/07/31 03:20:27;;;;;;;2.90;2.28;;;;;;;22.53;57.24;100409.81;5070256;28;20028;-70
2023/07/31 03:22:52;;;;;;;3.78;1.60;;;;;;;22.53;57.12;100412.47;5070984;28;20029;-69
2023/07/31 03:25:17;;;;;;;3.85;1.77;;;;;;;22.53;57.26;100412.47;5065912;28;20161;-67
2023/07/31 03:27:43;;;;;;;2.42;2.00;;;;;;;22.52;56.96;100400.16;5072010;28;20068;-69
2023/07/31 03:30:08;;;;;;;2.85;1.90;;;;;;;22.52;57.08;100410.75;5071214;28;20473;-68
2023/07/31 03:32:33;;;;;;;2.20;1.80;;;;;;;22.52;57.18;100400.16;5067636;28;20711;-69
2023/07/31 03:34:59;;;;;;;3.25;1.70;;;;;;;22.51;57.40;100404.63;5071072;28;20029;-67
2023/07/31 03:37:25;;;;;;;2.33;2.13;;;;;;;22.50;57.09;100405.59;5070689;28;20031;-69
2023/07/31 03:39:50;;;;;;;2.53;1.60;;;;;;;22.50;56.96;100402.94;5071269;28;20054;-69
2023/07/31 03:42:15;;;;;;;3.63;1.60;;;;;;;22.49;57.10;100399.47;5066614;28;20050;-70
2023/07/31 03:44:41;;;;;;;2.00;1.80;;;;;;;22.48;57.01;100405.75;5064705;28;20047;-67
2023/07/31 03:47:06;;;;;;;3.95;2.05;;;;;;;22.49;57.09;100410.06;5070380;28;20063;-71
2023/07/31 03:49:31;;;;;;;2.20;2.00;;;;;;;22.50;56.86;100402.94;5071597;28;20059;-70
2023/07/31 03:51:57;;;;;;;2.28;2.08;;;;;;;22.49;56.90;100393.34;5071050;28;20540;-69
2023/07/31 03:54:22;;;;;;;1.80;1.70;;;;;;;22.49;57.03;100402.13;5077992;28;20111;-70
2023/07/31 03:56:47;;;;;;;3.25;1.80;;;;;;;22.49;56.85;100399.47;5076063;28;21412;-68
2023/07/31 03:59:13;;;;;;;2.15;1.80;;;;;;;22.48;56.96;100400.44;5070058;28;20038;-70
2023/07/31 04:01:38;;;;;;;2.13;1.70;;;;;;;22.48;56.88;100400.44;5069209;28;20024;-68
2023/07/31 04:04:03;;;;;;;2.85;1.85;;;;;;;22.49;56.93;100402.13;5047633;28;20436;-72
2023/07/31 04:06:29;;;;;;;3.17;2.05;;;;;;;22.49;57.24;100406.56;5071149;28;20511;-67
2023/07/31 04:08:54;;;;;;;3.70;1.85;;;;;;;22.48;56.86;100400.44;5071200;28;20494;-67
2023/07/31 04:11:20;;;;;;;2.90;2.00;;;;;;;22.48;57.09;100405.75;5069497;28;20042;-68
2023/07/31 04:13:45;;;;;;;2.75;1.90;;;;;;;22.48;56.93;100392.50;5078824;28;20380;-69
2023/07/31 04:16:10;;;;;;;1.98;1.60;;;;;;;22.47;57.00;100398.78;5067380;28;20115;-69
2023/07/31 04:18:37;;;;;;;2.22;2.03;;;;;;;22.47;57.21;100404.06;5069752;28;20112;-69
2023/07/31 04:21:02;;;;;;;2.05;1.85;;;;;;;22.47;57.20;100396.13;5068500;28;20051;-69
2023/07/31 04:23:28;;;;;;;2.90;2.15;;;;;;;22.47;57.00;100398.78;5069271;28;20054;-69
2023/07/31 04:25:53;;;;;;;2.83;1.65;;;;;;;22.48;57.14;100389.03;5071834;28;20052;-68
2023/07/31 04:28:19;;;;;;;2.95;1.90;;;;;;;22.46;56.92;100385.66;5070727;28;20391;-71
2023/07/31 04:30:44;;;;;;;3.47;1.80;;;;;;;22.46;56.90;100389.16;5071356;28;20487;-67
2023/07/31 04:33:09;;;;;;;3.50;1.90;;;;;;;22.46;56.83;100381.22;5065474;28;20039;-69
2023/07/31 04:35:35;;;;;;;2.47;2.05;;;;;;;22.45;56.88;100381.34;5065948;28;20020;-68
2023/07/31 04:38:00;;;;;;;3.63;2.03;;;;;;;22.46;56.94;100390.94;5071581;28;20029;-70
2023/07/31 04:40:26;;;;;;;2.53;1.80;;;;;;;22.46;56.72;100396.22;5069027;28;20111;-71
2023/07/31 04:42:51;;;;;;;2.47;2.15;;;;;;;22.47;56.75;100388.19;5064234;28;20051;-69
2023/07/31 04:45:16;;;;;;;2.47;1.50;;;;;;;22.46;57.20;100386.53;5067814;28;20475;-72
2023/07/31 04:47:42;;;;;;;2.35;2.13;;;;;;;22.48;56.87;100383.72;5070864;28;20063;-72
2023/07/31 04:50:07;;;;;;;2.20;1.75;;;;;;;22.46;56.83;100381.22;5069313;28;20060;-70
2023/07/31 04:52:33;;;;;;;2.00;1.83;;;;;;;22.46;56.71;100386.53;5066572;28;20066;-66
2023/07/31 04:54:58;;;;;;;2.00;1.77;;;;;;;22.46;56.86;100380.34;5065009;28;20103;-70
2023/07/31 04:57:23;;;;;;;3.08;1.80;;;;;;;22.44;57.11;100377.84;5070068;28;20238;-70
2023/07/31 04:59:49;;;;;;;1.92;1.70;;;;;;;22.53;57.09;100386.00;5071571;28;20086;-67
2023/07/31 05:02:15;;;;;;;2.45;1.92;;;;;;;22.54;56.51;100385.03;5072922;28;20069;-72
2023/07/31 05:04:40;;;;;;;3.20;1.83;;;;;;;22.54;56.42;100385.03;5065072;28;20032;-71
2023/07/31 05:07:06;;;;;;;3.15;2.33;;;;;;;22.53;56.76;100383.34;5069264;28;20036;-71
2023/07/31 05:09:31;;;;;;;2.47;1.50;;;;;;;22.53;56.92;100383.34;5070642;28;20043;-69
2023/07/31 05:11:56;;;;;;;3.15;1.73;;;;;;;22.66;57.23;100382.19;5067124;28;20058;-70
2023/07/31 05:14:22;;;;;;;4.35;2.25;;;;;;;22.82;57.13;100378.25;5064077;28;20079;-68
2023/07/31 05:16:47;;;;;;;3.90;2.60;;;;;;;22.86;57.38;100380.50;5068182;28;20403;-72
2023/07/31 05:19:12;;;;;;;3.22;2.00;;;;;;;22.88;57.83;100370.66;5068865;28;20369;-69
2023/07/31 05:21:38;;;;;;;4.43;1.98;;;;;;;22.91;58.02;100380.94;5069197;28;20479;-70
2023/07/31 05:24:03;;;;;;;3.05;1.50;;;;;;;22.98;58.11;100371.53;5066383;28;20048;-68
2023/07/31 05:26:28;;;;;;;4.65;1.90;;;;;;;23.12;58.53;100382.75;5068684;28;20054;-68
2023/07/31 05:28:54;;;;;;;5.60;2.58;;;;;;;23.20;58.77;100372.31;5073076;28;20024;-68
2023/07/31 05:31:20;;;;;;;3.30;2.38;;;;;;;23.22;58.56;100376.50;5073500;28;20047;-67
2023/07/31 05:33:46;;;;;;;2.67;2.22;;;;;;;23.22;59.18;100367.72;5079158;28;20036;-67
2023/07/31 05:36:11;;;;;;;3.53;2.40;;;;;;;23.21;58.98;100371.34;5071430;28;20048;-68
2023/07/31 05:38:36;;;;;;;3.95;2.30;;;;;;;23.23;59.02;100377.34;5072882;28;20028;-68
2023/07/31 05:41:02;;;;;;;6.80;2.28;;;;;;;23.16;59.60;100374.41;5071640;28;20110;-65
2023/07/31 05:43:27;;;;;;;7.53;2.42;;;;;;;23.14;59.41;100375.47;5067335;28;20086;-67
2023/07/31 05:45:52;;;;;;;5.18;2.03;;;;;;;23.10;59.36;100368.81;5071385;28;20028;-65
2023/07/31 05:48:18;;;;;;;5.43;2.35;;;;;;;23.10;58.84;100361.69;5072267;28;20016;-67
2023/07/31 05:50:43;;;;;;;4.85;2.05;;;;;;;22.98;59.20;100368.88;5074161;28;20020;-67
2023/07/31 05:53:10;;;;;;;3.75;1.80;;;;;;;22.93;59.30;100363.16;5050949;28;20017;-70
2023/07/31 05:55:35;;;;;;;3.63;2.22;;;;;;;23.00;59.46;100363.44;5073514;28;20495;-67
2023/07/31 05:58:01;;;;;;;2.63;1.88;;;;;;;23.11;59.47;100371.31;5072080;28;20028;-69
2023/07/31 06:00:27;;;;;;;3.88;2.15;;;;;;;23.17;59.37;100369.94;5071202;28;20029;-66
2023/07/31 06:02:52;;;;;;;2.20;1.85;;;;;;;23.17;58.92;100370.78;5069459;28;20024;-68
2023/07/31 06:05:18;;;;;;;3.28;1.80;;;;;;;23.20;58.62;100374.94;5068572;28;20133;-68
2023/07/31 06:07:43;;;;;;;1.70;1.60;;;;;;;23.17;58.60;100369.94;5073962;28;20135;-67
2023/07/31 06:10:09;;;;;;;2.40;1.77;;;;;;;23.11;58.44;100359.88;5072311;28;20028;-67
2023/07/31 06:12:35;;;;;;;2.70;1.83;;;;;;;23.17;58.88;100359.34;5068301;28;20078;-67
2023/07/31 06:15:02;;;;;;;3.50;1.70;;;;;;;23.22;59.00;100355.31;5074580;28;20028;-66
2023/07/31 06:17:27;;;;;;;3.03;1.90;;;;;;;23.20;58.21;100353.75;5072870;28;20035;-67
2023/07/31 06:19:52;;;;;;;5.57;2.17;;;;;;;23.16;59.11;100357.69;5073082;28;20079;-68
2023/07/31 06:22:18;;;;;;;3.15;1.85;;;;;;;22.98;57.30;100353.00;5070202;28;20043;-67
2023/07/31 06:24:44;;;;;;;1.65;1.52;;;;;;;22.84;57.38;100358.59;5065707;28;20055;-68
2023/07/31 06:27:10;;;;;;;3.47;2.10;;;;;;;22.78;57.53;100360.94;5072200;28;21315;-69
2023/07/31 06:29:35;;;;;;;3.00;1.90;;;;;;;22.73;57.83;100356.03;5071921;28;20060;-69
2023/07/31 06:32:01;;;;;;;3.45;2.03;;;;;;;22.70;57.37;100358.94;5069376;28;20538;-66
2023/07/31 06:34:26;;;;;;;2.03;1.65;;;;;;;22.68;57.53;100361.72;5065382;28;20024;-69
2023/07/31 06:36:51;;;;;;;2.40;1.75;;;;;;;22.68;57.23;100355.56;5070049;28;20032;-68
2023/07/31 06:39:17;;;;;;;3.95;2.20;;;;;;;22.68;57.13;100347.63;5068428;28;20131;-69
2023/07/31 06:41:43;;;;;;;4.47;1.80;;;;;;;22.66;56.99;100339.84;5073755;28;20107;-67
2023/07/31 06:44:09;;;;;;;2.28;1.83;;;;;;;22.66;57.37;100350.44;5075914;28;20783;-71
2023/07/31 06:46:35;;;;;;;4.47;1.98;;;;;;;22.66;57.13;100344.28;5069412;28;20036;-69
2023/07/31 06:49:00;;;;;;;5.50;2.28;;;;;;;22.65;57.41;100339.97;5072777;28;22246;-68
2023/07/31 06:51:25;;;;;;;2.70;1.70;;;;;;;22.65;56.87;100345.28;5070496;28;20020;-70
2023/07/31 06:53:51;;;;;;;2.30;2.10;;;;;;;22.63;57.31;100345.38;5058695;28;20028;-67
2023/07/31 06:56:16;;;;;;;3.67;2.38;;;;;;;22.64;56.97;100346.25;5066455;28;20034;-69
2023/07/31 06:58:41;;;;;;;3.42;1.85;;;;;;;22.64;56.93;100351.53;5071419;28;20078;-66
2023/07/31 07:01:07;;;;;;;2.15;1.95;;;;;;;22.63;56.84;100355.97;5072332;28;20111;-67
2023/07/31 07:03:32;;;;;;;3.30;1.65;;;;;;;22.62;56.94;100351.66;5069502;28;20085;-67
2023/07/31 07:05:58;;;;;;;4.93;2.55;;;;;;;22.62;56.91;100349.00;5067442;28;20032;-69
2023/07/31 07:08:24;;;;;;;1.77;1.60;;;;;;;22.63;57.14;100345.38;5071193;28;20030;-67
2023/07/31 07:10:49;;;;;;;3.08;2.00;;;;;;;22.63;56.90;100344.53;5070433;28;20035;-71
2023/07/31 07:13:15;;;;;;;2.63;1.73;;;;;;;22.63;56.97;100333.97;5061844;28;20032;-71
2023/07/31 07:15:40;;;;;;;8.07;2.45;;;;;;;22.62;56.73;100340.22;5068700;28;20049;-69
2023/07/31 07:18:06;;;;;;;3.42;1.83;;;;;;;22.62;56.74;100343.72;5071607;28;20020;-68
2023/07/31 07:20:31;;;;;;;4.10;1.80;;;;;;;22.63;57.02;100341.91;5071191;28;20028;-67
2023/07/31 07:22:57;;;;;;;3.10;1.70;;;;;;;22.63;56.51;100340.09;5073473;28;20056;-69
2023/07/31 07:25:22;;;;;;;2.75;2.20;;;;;;;22.63;56.80;100345.38;5065819;28;20055;-67
2023/07/31 07:27:47;;;;;;;2.70;1.90;;;;;;;22.62;56.82;100333.13;5071649;28;20354;-68
2023/07/31 07:30:14;;;;;;;2.35;1.80;;;;;;;22.61;56.66;100333.25;5070664;28;20055;-69
2023/07/31 07:32:39;;;;;;;2.70;2.05;;;;;;;22.62;56.74;100342.88;5068677;28;20716;-69
2023/07/31 07:35:06;;;;;;;3.17;1.80;;;;;;;22.64;56.58;100338.31;5054977;28;20028;-69
2023/07/31 07:37:31;;;;;;;4.57;1.88;;;;;;;22.63;56.73;100339.25;5069419;28;20031;-67
2023/07/31 07:39:57;;;;;;;4.28;2.05;;;;;;;22.63;56.69;100336.59;5070623;28;20019;-69
2023/07/31 07:42:22;;;;;;;1.98;1.75;;;;;;;22.61;56.45;100334.09;5066905;28;20032;-71
2023/07/31 07:44:48;;;;;;;2.53;1.75;;;;;;;22.60;56.46;100327.13;5066516;28;20032;-67
2023/07/31 07:47:13;;;;;;;2.92;1.95;;;;;;;22.62;56.51;100327.81;5071108;28;20496;-67
2023/07/31 07:49:38;;;;;;;4.70;1.90;;;;;;;22.63;56.53;100333.97;5071857;28;20502;-66
2023/07/31 07:52:05;;;;;;;2.63;1.70;;;;;;;22.63;56.63;100329.50;5068066;28;20036;-67
2023/07/31 07:54:30;;;;;;;6.22;2.10;;;;;;;22.63;56.82;100331.31;5074298;28;20506;-68
2023/07/31 07:56:56;;;;;;;2.58;1.90;;;;;;;22.64;56.99;100335.66;5068656;28;20135;-67
2023/07/31 07:59:21;;;;;;;5.55;2.13;;;;;;;22.64;56.68;100335.66;5069478;28;20059;-69
2023/07/31 08:01:46;;;;;;;2.50;2.17;;;;;;;22.63;56.93;100332.16;5068957;28;20054;-69
2023/07/31 08:04:12;;;;;;;2.70;1.80;;;;;;;22.64;56.61;100325.91;5063596;28;20070;-69
2023/07/31 08:06:37;;;;;;;2.15;1.70;;;;;;;22.64;57.02;100317.13;5068918;28;20112;-69
2023/07/31 08:09:06;;;;;;;3.10;1.83;;;;;;;22.64;57.12;100327.72;5068206;28;20028;-67
2023/07/31 08:11:34;;;;;;;3.78;1.90;;;;;;;22.61;56.87;100318.22;5068286;28;20052;-66
2023/07/31 08:14:00;;;;;;;1.67;1.58;;;;;;;22.63;56.81;100320.72;5067426;28;20565;-69
2023/07/31 08:16:25;;;;;;;2.33;1.85;;;;;;;22.63;56.92;100321.56;5066409;28;20055;-71
2023/07/31 08:18:50;;;;;;;2.05;1.60;;;;;;;22.63;57.04;100312.78;5070647;28;20127;-67
2023/07/31 08:21:16;;;;;;;2.15;1.77;;;;;;;22.62;57.01;100309.31;5068848;28;20629;-68
2023/07/31 08:23:41;;;;;;;4.30;2.33;;;;;;;22.63;57.01;100312.78;5065961;28;20546;-69
2023/07/31 08:26:07;;;;;;;3.25;1.90;;;;;;;22.64;57.21;100311.84;5073962;28;20060;-67
2023/07/31 08:28:32;;;;;;;1.88;1.52;;;;;;;22.62;57.21;100309.31;5069559;28;20028;-68
2023/07/31 08:30:58;;;;;;;3.03;2.05;;;;;;;22.63;57.25;100304.84;5051310;28;20097;-70
2023/07/31 08:33:23;;;;;;;2.40;1.83;;;;;;;22.63;57.46;100296.91;5065684;28;20034;-69
2023/07/31 08:35:48;;;;;;;1.60;1.50;;;;;;;22.62;57.15;100292.59;5066046;28;20016;-67
2023/07/31 08:38:14;;;;;;;2.15;1.80;;;;;;;22.62;57.39;100292.59;5070495;28;20414;-67
2023/07/31 08:40:40;;;;;;;2.33;1.55;;;;;;;22.63;57.37;100283.69;5069234;28;20044;-67
2023/07/31 08:43:05;;;;;;;3.60;2.13;;;;;;;22.63;57.19;100286.31;5065993;28;20107;-69
2023/07/31 08:45:32;;;;;;;2.05;1.48;;;;;;;22.63;57.20;100278.38;5069666;28;20036;-68
2023/07/31 08:47:58;;;;;;;2.85;2.08;;;;;;;22.62;57.38;100280.19;5070197;28;20371;-67
2023/07/31 08:50:24;;;;;;;2.85;1.70;;;;;;;22.62;57.16;100279.38;5067198;28;20032;-69
2023/07/31 08:52:50;;;;;;;2.25;1.73;;;;;;;22.62;57.11;100274.06;5068847;28;20361;-70
2023/07/31 08:55:16;;;;;;;1.70;1.60;;;;;;;22.61;57.14;100277.69;5066244;28;20024;-69
2023/07/31 08:57:42;;;;;;;2.83;2.05;;;;;;;22.61;57.46;100272.41;5069390;28;20384;-68
2023/07/31 09:00:09;;;;;;;2.72;1.50;;;;;;;22.60;57.27;100274.22;5068744;28;20528;-70
2023/07/31 09:03:09;;;;;;;3.80;2.08;;;;;;;22.61;57.14;100269.75;5070085;28;20069;-67
2023/07/31 09:05:36;;;;;;;3.05;1.88;;;;;;;22.60;57.22;100260.16;5066805;28;20089;-67
2023/07/31 09:08:03;;;;;;;4.35;1.92;;;;;;;22.62;57.32;100250.25;5073711;28;20036;-69
2023/07/31 09:10:28;;;;;;;3.33;1.90;;;;;;;22.62;57.58;100253.75;5073999;28;20020;-69
2023/07/31 09:12:54;;;;;;;3.22;2.15;;;;;;;22.63;57.47;100255.41;5071466;28;20086;-68
2023/07/31 09:15:20;;;;;;;2.05;1.85;;;;;;;22.64;57.47;100253.63;5068269;28;20028;-71
2023/07/31 09:17:46;;;;;;;2.35;2.15;;;;;;;22.64;57.57;100253.63;5073626;28;20070;-71
2023/07/31 09:20:19;;;;;;;2.00;1.80;;;;;;;22.63;57.40;100244.81;5072654;28;20036;-67
2023/07/31 09:22:45;;;;;;;2.88;1.80;;;;;;;22.63;57.67;100238.69;5072917;28;20044;-70
2023/07/31 09:25:17;;;;;;;2.63;2.03;;;;;;;22.64;57.30;100245.69;5073394;28;20640;-69
2023/07/31 09:27:48;;;;;;;1.65;1.55;;;;;;;22.64;57.56;100243.03;5071966;28;20479;-69
2023/07/31 09:30:14;;;;;;;2.72;1.95;;;;;;;22.64;57.39;100241.22;5072288;28;20028;-68
2023/07/31 09:32:39;;;;;;;1.73;1.40;;;;;;;22.64;57.44;100232.47;5073558;28;20480;-66
2023/07/31 09:35:27;;;;;;;2.90;1.67;;;;;;;22.64;57.67;100224.53;5068675;28;20067;-68
2023/07/31 09:37:57;;;;;;;2.55;1.70;;;;;;;22.63;57.39;100228.13;5071261;28;20054;-68
2023/07/31 09:40:33;;;;;;;2.38;1.83;;;;;;;22.62;57.58;100226.44;5072515;28;20037;-66
2023/07/31 09:43:01;;;;;;;2.72;1.67;;;;;;;22.62;57.90;100227.28;5071895;28;20032;-69
2023/07/31 09:45:28;;;;;;;1.98;1.70;;;;;;;22.62;57.60;100226.44;5074856;28;20097;-69
2023/07/31 09:47:54;;;;;;;1.70;1.60;;;;;;;22.62;57.55;100223.78;5074173;28;20078;-68
2023/07/31 09:50:21;;;;;;;2.58;1.65;;;;;;;22.63;57.53;100214.88;5071529;28;20506;-67
2023/07/31 09:52:47;;;;;;;2.50;1.90;;;;;;;22.63;57.73;100212.25;5070075;28;20024;-68
2023/07/31 09:55:12;;;;;;;4.85;1.67;;;;;;;22.64;57.62;100203.34;5070054;28;20854;-66
2023/07/31 09:57:45;;;;;;;2.53;1.88;;;;;;;22.64;57.58;100212.13;5071481;28;20165;-68
2023/07/31 10:00:15;;;;;;;1.65;1.55;;;;;;;22.66;57.40;100211.97;5069322;28;20520;-66
2023/07/31 10:02:41;;;;;;;2.05;1.70;;;;;;;22.65;57.50;100210.31;5067889;28;20035;-69
2023/07/31 10:05:07;;;;;;;2.75;1.60;;;;;;;22.64;57.58;100208.66;5071500;28;20388;-68
2023/07/31 10:07:47;;;;;;;1.98;1.63;;;;;;;22.65;57.62;100210.31;5070996;28;20032;-67
2023/07/31 10:10:15;;;;;;;1.90;1.80;;;;;;;22.64;57.80;100196.25;5073335;28;20029;-67
2023/07/31 10:12:41;;;;;;;2.75;1.70;;;;;;;22.64;57.63;100204.19;5068603;28;20131;-68
2023/07/31 10:15:06;;;;;;;1.90;1.70;;;;;;;22.63;57.65;100199.84;5072003;28;20625;-67
2023/07/31 10:17:32;;;;;;;3.10;1.75;;;;;;;22.63;57.70;100197.19;5071709;28;20053;-69
2023/07/31 10:20:02;;;;;;;2.33;2.10;;;;;;;22.65;57.43;100197.09;5072403;28;20082;-68
2023/07/31 10:22:28;;;;;;;2.15;1.95;;;;;;;22.64;57.54;100190.97;5067440;28;20028;-71
2023/07/31 10:24:55;;;;;;;2.33;1.58;;;;;;;22.65;57.63;100184.69;5066217;28;20111;-68
2023/07/31 10:27:20;;;;;;;5.15;1.90;;;;;;;22.64;57.62;100190.13;5069604;28;20071;-69
2023/07/31 10:29:47;;;;;;;4.10;1.70;;;;;;;22.65;57.79;100191.78;5070861;28;20127;-67
2023/07/31 10:32:13;;;;;;;1.95;1.40;;;;;;;22.65;57.63;100183.84;5069627;28;20115;-67
2023/07/31 10:34:39;;;;;;;2.05;1.65;;;;;;;22.66;57.37;100188.16;5069738;28;20480;-69
2023/07/31 10:37:28;;;;;;;1.70;1.60;;;;;;;22.66;57.28;100182.88;5070302;28;20032;-67
2023/07/31 10:40:00;;;;;;;2.10;1.90;;;;;;;22.67;57.69;100187.19;5071785;28;20023;-69
2023/07/31 10:42:37;;;;;;;2.10;1.50;;;;;;;22.66;57.49;100167.00;5069109;28;20095;-70
2023/07/31 10:45:07;;;;;;;1.77;1.55;;;;;;;22.66;57.63;100173.13;5069941;28;20052;-68
2023/07/31 10:47:39;;;;;;;3.20;2.20;;;;;;;22.60;57.18;100171.03;5071264;28;20032;-67
2023/07/31 10:50:21;;;;;;;3.63;1.80;;;;;;;22.55;57.44;100182.97;5071181;28;20031;-69
2023/07/31 10:52:48;;;;;;;1.80;1.70;;;;;;;22.52;57.66;100178.81;5067402;28;20109;-67
2023/07/31 10:55:32;;;;;;;6.22;1.92;;;;;;;22.51;57.95;100181.56;5072299;28;20028;-68
2023/07/31 10:58:06;;;;;;;3.42;2.20;;;;;;;22.49;57.69;100177.25;5071392;28;20031;-66
2023/07/31 11:00:31;;;;;;;3.22;1.80;;;;;;;22.47;57.71;100163.31;5070757;28;20104;-67
2023/07/31 11:03:03;;;;;;;2.45;1.67;;;;;;;22.48;57.83;100167.63;5067364;28;20032;-67
2023/07/31 11:05:50;;;;;;;2.53;1.80;;;;;;;22.51;58.01;100168.31;5073304;28;20508;-69
2023/07/31 11:08:22;;;;;;;1.98;1.77;;;;;;;22.51;57.70;100161.22;5071301;28;20109;-66
2023/07/31 11:10:51;;;;;;;1.88;1.70;;;;;;;22.52;58.01;100159.41;5070429;28;20691;-69
2023/07/31 11:13:16;;;;;;;2.00;1.80;;;;;;;22.51;57.98;100157.75;5066025;28;20400;-68
2023/07/31 11:15:42;;;;;;;2.65;1.80;;;;;;;22.51;58.11;100155.09;5071716;28;20519;-69
2023/07/31 11:18:08;;;;;;;2.47;1.90;;;;;;;22.51;58.01;100141.88;5071538;28;20096;-67
2023/07/31 11:20:35;;;;;;;3.10;1.70;;;;;;;22.50;57.75;100141.03;5070155;28;20108;-69